RCFN

Details ICAO RCFN (TTT)
Name FONGNIAN
Region Republic of China (Taiwan)
Timezone Asia/Taipei (UTC+8.0)
Plans Departing 16
Arriving 39
Stats Elevation 143 ft / 44 m (AMSL)
Location 22.754900° 121.102000°
Runways 1
Magnetic Variation 3.978° W
Sunrise 2018-10-21 21:56:07 UTC / 2018-10-22 05:56:07 Local
Sunset 2018-10-22 09:26:26 UTC / 2018-10-22 17:26:26 Local
Advertisement - Login to hide

Runways

ID Width Length Bearing (true/mag) Surface Threshold Overrun Markings Lighting
04 148 ft / 45 m 8,006 ft / 2,440 m 38.54° / 42.51° ASPHALT 0 ft / 0 m 771 ft / 235 m PREC-APP EDGE THRESHOLD MALSR
22 148 ft / 45 m 8,006 ft / 2,440 m 218.54° / 222.52° ASPHALT 0 ft / 0 m 761 ft / 232 m APP EDGE THRESHOLD REIL-OMNI

Map

Weather


0- 5 10 15 20 25 30 35+ Temperature / °C

Clouds and Precipitation
Forecast for 2018-10-22 12:00 UTC. Updated 3 hours ago

Ground ~20,000 ft ~40,000 ft Winds

METAR

RCFN 221200Z 34002KT 9999 VCSH FEW016 SCT032 BKN042 22/22 Q1016 NOSIG RMK A3002

TAF

TAF TAF RCFN 221100Z 2212/2312 34005KT 9999 FEW015 BKN032 BECMG 2300/2302 06005KT TEMPO 2303/2309 12005KT FEW010 BKN022 BKN060 BECMG 2310/2312 35005KT

Frequencies

Tower 118.10 MHz FONGNIAN TWR
Approach 119.40 MHz KAOHSIUNG APP
Ground 121.90 MHz FONGNIAN GND
Recorded 127.00 MHz FONGNIAN ATIS
Warning: Do not use this data for real-world aviation or navigation. No guarantee of current accuracy is given.